sensor_id;sensor_type;location;lat;lon;timestamp;temperature;humidity
13186;DHT22;6658;53.080;7.428;2023-06-26T00:02:41;21.00;99.90
13186;DHT22;6658;53.080;7.428;2023-06-26T00:05:25;21.00;99.90
13186;DHT22;6658;53.080;7.428;2023-06-26T00:08:15;20.90;99.90
13186;DHT22;6658;53.080;7.428;2023-06-26T00:10:56;20.90;99.90
13186;DHT22;6658;53.080;7.428;2023-06-26T00:13:23;20.80;99.90
13186;DHT22;6658;53.080;7.428;2023-06-26T00:15:53;20.80;99.90
13186;DHT22;6658;53.080;7.428;2023-06-26T00:18:21;20.80;99.90
13186;DHT22;6658;53.080;7.428;2023-06-26T00:20:50;20.70;99.90
13186;DHT22;6658;53.080;7.428;2023-06-26T00:23:25;20.70;99.90
13186;DHT22;6658;53.080;7.428;2023-06-26T00:26:19;20.70;99.90
13186;DHT22;6658;53.080;7.428;2023-06-26T00:28:59;20.60;99.90
13186;DHT22;6658;53.080;7.428;2023-06-26T00:32:06;20.60;99.90
13186;DHT22;6658;53.080;7.428;2023-06-26T00:34:37;20.60;99.90
13186;DHT22;6658;53.080;7.428;2023-06-26T00:37:29;20.60;99.90
13186;DHT22;6658;53.080;7.428;2023-06-26T00:40:00;20.60;99.90
13186;DHT22;6658;53.080;7.428;2023-06-26T00:42:30;20.50;99.90
13186;DHT22;6658;53.080;7.428;2023-06-26T00:45:01;20.50;99.90
13186;DHT22;6658;53.080;7.428;2023-06-26T00:47:41;20.50;99.90
13186;DHT22;6658;53.080;7.428;2023-06-26T00:50:14;20.50;99.90
13186;DHT22;6658;53.080;7.428;2023-06-26T00:52:44;20.50;99.90
13186;DHT22;6658;53.080;7.428;2023-06-26T00:55:33;20.40;99.90
13186;DHT22;6658;53.080;7.428;2023-06-26T00:58:07;20.40;99.90
13186;DHT22;6658;53.080;7.428;2023-06-26T01:03:48;20.40;99.90
13186;DHT22;6658;53.080;7.428;2023-06-26T01:06:42;20.30;99.90
13186;DHT22;6658;53.080;7.428;2023-06-26T01:12:44;20.30;99.90
13186;DHT22;6658;53.080;7.428;2023-06-26T01:18:45;20.30;99.90
13186;DHT22;6658;53.080;7.428;2023-06-26T01:21:29;20.30;99.90
13186;DHT22;6658;53.080;7.428;2023-06-26T01:24:30;20.30;99.90
13186;DHT22;6658;53.080;7.428;2023-06-26T01:27:05;20.30;99.90
13186;DHT22;6658;53.080;7.428;2023-06-26T01:29:56;20.30;99.90
13186;DHT22;6658;53.080;7.428;2023-06-26T01:32:46;20.20;99.90
13186;DHT22;6658;53.080;7.428;2023-06-26T01:35:40;20.20;99.90
13186;DHT22;6658;53.080;7.428;2023-06-26T01:38:30;20.20;99.90
13186;DHT22;6658;53.080;7.428;2023-06-26T01:41:35;20.20;99.90
13186;DHT22;6658;53.080;7.428;2023-06-26T01:44:28;20.20;99.90
13186;DHT22;6658;53.080;7.428;2023-06-26T01:47:06;20.10;99.90
13186;DHT22;6658;53.080;7.428;2023-06-26T01:56:44;20.10;99.90
13186;DHT22;6658;53.080;7.428;2023-06-26T01:59:24;20.00;99.90
13186;DHT22;6658;53.080;7.428;2023-06-26T02:02:23;20.00;99.90
13186;DHT22;6658;53.080;7.428;2023-06-26T02:04:55;20.00;99.90
13186;DHT22;6658;53.080;7.428;2023-06-26T02:10:25;20.00;99.90
13186;DHT22;6658;53.080;7.428;2023-06-26T02:15:46;20.00;99.90
13186;DHT22;6658;53.080;7.428;2023-06-26T02:18:11;20.00;99.90
13186;DHT22;6658;53.080;7.428;2023-06-26T02:24:10;19.90;99.90
13186;DHT22;6658;53.080;7.428;2023-06-26T02:26:35;19.90;99.90
13186;DHT22;6658;53.080;7.428;2023-06-26T02:43:03;19.80;99.90
13186;DHT22;6658;53.080;7.428;2023-06-26T02:45:55;19.90;99.90
13186;DHT22;6658;53.080;7.428;2023-06-26T02:51:39;20.00;99.90
13186;DHT22;6658;53.080;7.428;2023-06-26T02:54:05;20.00;99.90
13186;DHT22;6658;53.080;7.428;2023-06-26T02:56:31;20.00;99.90
13186;DHT22;6658;53.080;7.428;2023-06-26T02:58:57;20.00;99.90
13186;DHT22;6658;53.080;7.428;2023-06-26T03:01:26;20.00;99.90
13186;DHT22;6658;53.080;7.428;2023-06-26T03:03:52;20.00;99.90
13186;DHT22;6658;53.080;7.428;2023-06-26T03:06:21;20.00;99.90
13186;DHT22;6658;53.080;7.428;2023-06-26T03:08:47;20.00;99.90
13186;DHT22;6658;53.080;7.428;2023-06-26T03:11:12;20.00;99.90
13186;DHT22;6658;53.080;7.428;2023-06-26T03:13:38;20.00;99.90
13186;DHT22;6658;53.080;7.428;2023-06-26T03:16:37;20.00;99.90
13186;DHT22;6658;53.080;7.428;2023-06-26T03:19:38;20.00;99.90
13186;DHT22;6658;53.080;7.428;2023-06-26T03:22:04;20.00;99.90
13186;DHT22;6658;53.080;7.428;2023-06-26T03:24:33;20.00;99.90
13186;DHT22;6658;53.080;7.428;2023-06-26T03:28:06;20.00;99.90
13186;DHT22;6658;53.080;7.428;2023-06-26T03:30:30;20.00;99.90
13186;DHT22;6658;53.080;7.428;2023-06-26T03:33:04;19.90;99.90
13186;DHT22;6658;53.080;7.428;2023-06-26T03:35:29;20.00;99.90
13186;DHT22;6658;53.080;7.428;2023-06-26T03:37:58;20.00;99.90
13186;DHT22;6658;53.080;7.428;2023-06-26T03:40:32;20.00;99.90
13186;DHT22;6658;53.080;7.428;2023-06-26T03:45:45;20.10;99.90
13186;DHT22;6658;53.080;7.428;2023-06-26T03:48:12;20.10;99.90
13186;DHT22;6658;53.080;7.428;2023-06-26T03:50:50;20.20;99.90
13186;DHT22;6658;53.080;7.428;2023-06-26T03:53:16;20.20;99.90
13186;DHT22;6658;53.080;7.428;2023-06-26T03:55:45;20.30;99.90
13186;DHT22;6658;53.080;7.428;2023-06-26T03:58:40;20.40;99.90
13186;DHT22;6658;53.080;7.428;2023-06-26T04:01:21;20.40;99.90
13186;DHT22;6658;53.080;7.428;2023-06-26T04:06:53;20.60;99.90
13186;DHT22;6658;53.080;7.428;2023-06-26T04:12:18;20.80;99.90
13186;DHT22;6658;53.080;7.428;2023-06-26T04:14:46;20.90;99.90
13186;DHT22;6658;53.080;7.428;2023-06-26T04:17:26;20.90;99.90
13186;DHT22;6658;53.080;7.428;2023-06-26T04:19:52;21.00;99.90
13186;DHT22;6658;53.080;7.428;2023-06-26T04:22:21;21.10;99.90
13186;DHT22;6658;53.080;7.428;2023-06-26T04:24:46;21.30;99.90
13186;DHT22;6658;53.080;7.428;2023-06-26T04:27:12;21.50;99.90
13186;DHT22;6658;53.080;7.428;2023-06-26T04:30:08;21.90;99.90
13186;DHT22;6658;53.080;7.428;2023-06-26T04:32:34;22.50;99.90
13186;DHT22;6658;53.080;7.428;2023-06-26T04:35:03;23.00;99.90
13186;DHT22;6658;53.080;7.428;2023-06-26T04:37:29;23.50;99.90
13186;DHT22;6658;53.080;7.428;2023-06-26T04:40:15;24.00;99.90
13186;DHT22;6658;53.080;7.428;2023-06-26T04:52:27;25.90;99.90
13186;DHT22;6658;53.080;7.428;2023-06-26T04:54:56;26.20;99.90
13186;DHT22;6658;53.080;7.428;2023-06-26T04:57:22;26.40;99.90
13186;DHT22;6658;53.080;7.428;2023-06-26T05:03:37;26.60;99.90
13186;DHT22;6658;53.080;7.428;2023-06-26T05:06:02;26.80;99.90
13186;DHT22;6658;53.080;7.428;2023-06-26T05:08:28;26.70;99.90
13186;DHT22;6658;53.080;7.428;2023-06-26T05:10:57;26.80;99.90
13186;DHT22;6658;53.080;7.428;2023-06-26T05:13:24;26.70;99.90
13186;DHT22;6658;53.080;7.428;2023-06-26T05:15:54;26.60;99.90
13186;DHT22;6658;53.080;7.428;2023-06-26T05:18:27;26.40;99.90
13186;DHT22;6658;53.080;7.428;2023-06-26T05:21:33;26.20;99.90
13186;DHT22;6658;53.080;7.428;2023-06-26T05:24:02;26.10;99.90
13186;DHT22;6658;53.080;7.428;2023-06-26T05:26:34;26.00;99.90
13186;DHT22;6658;53.080;7.428;2023-06-26T05:29:03;26.00;99.90
13186;DHT22;6658;53.080;7.428;2023-06-26T05:31:44;26.00;99.90
13186;DHT22;6658;53.080;7.428;2023-06-26T05:34:23;26.00;99.90
13186;DHT22;6658;53.080;7.428;2023-06-26T05:37:08;26.30;99.90
13186;DHT22;6658;53.080;7.428;2023-06-26T05:39:42;26.70;99.90
13186;DHT22;6658;53.080;7.428;2023-06-26T05:42:17;26.90;99.90
13186;DHT22;6658;53.080;7.428;2023-06-26T05:44:46;27.00;99.90
13186;DHT22;6658;53.080;7.428;2023-06-26T05:47:12;27.10;99.90
13186;DHT22;6658;53.080;7.428;2023-06-26T05:49:37;27.00;99.90
13186;DHT22;6658;53.080;7.428;2023-06-26T05:52:03;27.10;99.90
13186;DHT22;6658;53.080;7.428;2023-06-26T05:54:47;27.10;99.90
13186;DHT22;6658;53.080;7.428;2023-06-26T05:57:13;27.30;99.90
13186;DHT22;6658;53.080;7.428;2023-06-26T05:59:40;27.40;99.90
13186;DHT22;6658;53.080;7.428;2023-06-26T06:02:08;27.60;99.90
13186;DHT22;6658;53.080;7.428;2023-06-26T06:04:33;27.40;99.90
13186;DHT22;6658;53.080;7.428;2023-06-26T06:07:00;27.10;99.90
13186;DHT22;6658;53.080;7.428;2023-06-26T06:09:29;27.00;99.90
13186;DHT22;6658;53.080;7.428;2023-06-26T06:11:58;27.00;99.90
13186;DHT22;6658;53.080;7.428;2023-06-26T06:14:34;27.30;99.90
13186;DHT22;6658;53.080;7.428;2023-06-26T06:17:01;27.10;99.90
13186;DHT22;6658;53.080;7.428;2023-06-26T06:19:26;26.70;99.90
13186;DHT22;6658;53.080;7.428;2023-06-26T06:21:53;25.90;99.90
13186;DHT22;6658;53.080;7.428;2023-06-26T06:24:19;24.70;99.90
13186;DHT22;6658;53.080;7.428;2023-06-26T06:26:48;23.60;99.90
13186;DHT22;6658;53.080;7.428;2023-06-26T06:29:14;23.10;99.90
13186;DHT22;6658;53.080;7.428;2023-06-26T06:31:44;22.90;99.90
13186;DHT22;6658;53.080;7.428;2023-06-26T06:34:13;22.70;99.90
13186;DHT22;6658;53.080;7.428;2023-06-26T06:36:39;22.40;99.90
13186;DHT22;6658;53.080;7.428;2023-06-26T06:39:05;22.10;99.90
13186;DHT22;6658;53.080;7.428;2023-06-26T06:41:33;21.90;99.90
13186;DHT22;6658;53.080;7.428;2023-06-26T06:43:59;21.60;99.90
13186;DHT22;6658;53.080;7.428;2023-06-26T06:46:24;21.40;99.90
13186;DHT22;6658;53.080;7.428;2023-06-26T06:48:52;21.30;99.90
13186;DHT22;6658;53.080;7.428;2023-06-26T06:51:18;21.20;99.90
13186;DHT22;6658;53.080;7.428;2023-06-26T06:53:44;21.20;99.90
13186;DHT22;6658;53.080;7.428;2023-06-26T06:56:15;21.30;99.90
13186;DHT22;6658;53.080;7.428;2023-06-26T06:58:41;21.30;99.90
13186;DHT22;6658;53.080;7.428;2023-06-26T07:01:11;21.40;99.90
13186;DHT22;6658;53.080;7.428;2023-06-26T07:03:37;21.50;99.90
13186;DHT22;6658;53.080;7.428;2023-06-26T07:06:06;21.50;99.90
13186;DHT22;6658;53.080;7.428;2023-06-26T07:08:31;21.50;99.90
13186;DHT22;6658;53.080;7.428;2023-06-26T07:11:00;21.60;99.90
13186;DHT22;6658;53.080;7.428;2023-06-26T07:13:30;21.70;99.90
13186;DHT22;6658;53.080;7.428;2023-06-26T07:15:55;22.00;99.90
13186;DHT22;6658;53.080;7.428;2023-06-26T07:18:21;22.10;99.90
13186;DHT22;6658;53.080;7.428;2023-06-26T07:20:49;21.80;99.90
13186;DHT22;6658;53.080;7.428;2023-06-26T07:23:15;21.60;99.90
13186;DHT22;6658;53.080;7.428;2023-06-26T07:25:41;21.60;99.90
13186;DHT22;6658;53.080;7.428;2023-06-26T07:28:12;21.80;99.90
13186;DHT22;6658;53.080;7.428;2023-06-26T07:30:38;22.10;99.90
13186;DHT22;6658;53.080;7.428;2023-06-26T07:33:04;22.70;99.90
13186;DHT22;6658;53.080;7.428;2023-06-26T07:35:30;22.90;99.90
13186;DHT22;6658;53.080;7.428;2023-06-26T07:37:56;22.70;99.90
13186;DHT22;6658;53.080;7.428;2023-06-26T07:40:22;22.60;99.90
13186;DHT22;6658;53.080;7.428;2023-06-26T07:42:48;22.40;99.90
13186;DHT22;6658;53.080;7.428;2023-06-26T07:45:14;22.30;99.90
13186;DHT22;6658;53.080;7.428;2023-06-26T07:47:44;22.00;99.90
13186;DHT22;6658;53.080;7.428;2023-06-26T07:50:10;21.90;99.90
13186;DHT22;6658;53.080;7.428;2023-06-26T07:52:36;21.90;99.90
13186;DHT22;6658;53.080;7.428;2023-06-26T07:55:01;22.20;99.90
13186;DHT22;6658;53.080;7.428;2023-06-26T07:57:29;22.70;99.90
13186;DHT22;6658;53.080;7.428;2023-06-26T07:59:55;23.20;99.90
13186;DHT22;6658;53.080;7.428;2023-06-26T08:02:21;23.50;99.90
13186;DHT22;6658;53.080;7.428;2023-06-26T08:04:47;23.30;99.90
13186;DHT22;6658;53.080;7.428;2023-06-26T08:07:13;23.10;99.90
13186;DHT22;6658;53.080;7.428;2023-06-26T08:09:39;23.40;99.90
13186;DHT22;6658;53.080;7.428;2023-06-26T08:12:05;23.70;99.90
13186;DHT22;6658;53.080;7.428;2023-06-26T08:14:31;24.10;99.90
13186;DHT22;6658;53.080;7.428;2023-06-26T08:16:57;24.30;99.90
13186;DHT22;6658;53.080;7.428;2023-06-26T08:19:25;24.70;99.90
13186;DHT22;6658;53.080;7.428;2023-06-26T08:21:51;25.10;99.90
13186;DHT22;6658;53.080;7.428;2023-06-26T08:24:17;25.40;99.90
13186;DHT22;6658;53.080;7.428;2023-06-26T08:26:45;25.40;99.90
13186;DHT22;6658;53.080;7.428;2023-06-26T08:29:12;25.50;99.90
13186;DHT22;6658;53.080;7.428;2023-06-26T08:31:38;25.50;99.90
13186;DHT22;6658;53.080;7.428;2023-06-26T08:34:07;25.30;99.90
13186;DHT22;6658;53.080;7.428;2023-06-26T08:36:33;24.90;99.90
13186;DHT22;6658;53.080;7.428;2023-06-26T08:38:59;25.10;99.90
13186;DHT22;6658;53.080;7.428;2023-06-26T08:41:28;25.50;99.90
13186;DHT22;6658;53.080;7.428;2023-06-26T08:43:53;25.70;99.90
13186;DHT22;6658;53.080;7.428;2023-06-26T08:46:19;25.60;99.90
13186;DHT22;6658;53.080;7.428;2023-06-26T08:48:56;25.80;99.90
13186;DHT22;6658;53.080;7.428;2023-06-26T08:51:30;26.00;99.90
13186;DHT22;6658;53.080;7.428;2023-06-26T08:53:59;26.10;99.90
13186;DHT22;6658;53.080;7.428;2023-06-26T08:56:40;26.20;99.90
13186;DHT22;6658;53.080;7.428;2023-06-26T08:59:06;25.70;99.90
13186;DHT22;6658;53.080;7.428;2023-06-26T09:01:33;25.20;99.90
13186;DHT22;6658;53.080;7.428;2023-06-26T09:03:58;25.00;99.90
13186;DHT22;6658;53.080;7.428;2023-06-26T09:06:24;24.80;99.90
13186;DHT22;6658;53.080;7.428;2023-06-26T09:08:50;24.50;99.90
13186;DHT22;6658;53.080;7.428;2023-06-26T09:11:16;24.60;99.90
13186;DHT22;6658;53.080;7.428;2023-06-26T09:13:43;25.00;99.90
13186;DHT22;6658;53.080;7.428;2023-06-26T09:16:09;25.20;99.90
13186;DHT22;6658;53.080;7.428;2023-06-26T09:18:35;25.20;99.90
13186;DHT22;6658;53.080;7.428;2023-06-26T09:21:06;24.80;99.90
13186;DHT22;6658;53.080;7.428;2023-06-26T09:23:32;24.80;99.90
13186;DHT22;6658;53.080;7.428;2023-06-26T09:25:59;25.50;99.90
13186;DHT22;6658;53.080;7.428;2023-06-26T09:28:24;25.80;99.90
13186;DHT22;6658;53.080;7.428;2023-06-26T09:30:54;25.50;99.90
13186;DHT22;6658;53.080;7.428;2023-06-26T09:33:20;25.10;99.90
13186;DHT22;6658;53.080;7.428;2023-06-26T09:35:47;25.30;99.90
13186;DHT22;6658;53.080;7.428;2023-06-26T09:38:13;25.80;99.90
13186;DHT22;6658;53.080;7.428;2023-06-26T09:40:40;26.30;99.90
13186;DHT22;6658;53.080;7.428;2023-06-26T09:43:13;26.70;99.90
13186;DHT22;6658;53.080;7.428;2023-06-26T09:45:41;26.70;99.90
13186;DHT22;6658;53.080;7.428;2023-06-26T09:48:21;26.90;99.90
13186;DHT22;6658;53.080;7.428;2023-06-26T09:51:13;26.40;99.90
13186;DHT22;6658;53.080;7.428;2023-06-26T09:53:39;26.30;99.90
13186;DHT22;6658;53.080;7.428;2023-06-26T09:56:08;25.80;99.90
13186;DHT22;6658;53.080;7.428;2023-06-26T09:58:42;25.20;99.90
13186;DHT22;6658;53.080;7.428;2023-06-26T10:01:08;25.40;99.90
13186;DHT22;6658;53.080;7.428;2023-06-26T10:03:35;25.60;99.90
13186;DHT22;6658;53.080;7.428;2023-06-26T10:06:02;25.90;99.90
13186;DHT22;6658;53.080;7.428;2023-06-26T10:08:29;25.50;99.90
13186;DHT22;6658;53.080;7.428;2023-06-26T10:10:57;26.00;99.90
13186;DHT22;6658;53.080;7.428;2023-06-26T10:13:27;26.30;99.90
13186;DHT22;6658;53.080;7.428;2023-06-26T10:15:55;27.10;99.90
13186;DHT22;6658;53.080;7.428;2023-06-26T10:18:22;27.50;99.90
13186;DHT22;6658;53.080;7.428;2023-06-26T10:20:55;27.10;99.90
13186;DHT22;6658;53.080;7.428;2023-06-26T10:23:26;26.20;99.90
13186;DHT22;6658;53.080;7.428;2023-06-26T10:25:55;25.30;99.90
13186;DHT22;6658;53.080;7.428;2023-06-26T10:28:22;24.80;99.90
13186;DHT22;6658;53.080;7.428;2023-06-26T10:30:50;25.40;99.90
13186;DHT22;6658;53.080;7.428;2023-06-26T10:33:18;25.40;99.90
13186;DHT22;6658;53.080;7.428;2023-06-26T10:35:52;25.20;99.90
13186;DHT22;6658;53.080;7.428;2023-06-26T10:38:18;25.10;99.90
13186;DHT22;6658;53.080;7.428;2023-06-26T10:40:46;24.80;99.90
13186;DHT22;6658;53.080;7.428;2023-06-26T10:43:15;24.40;99.90
13186;DHT22;6658;53.080;7.428;2023-06-26T10:45:48;24.70;99.90
13186;DHT22;6658;53.080;7.428;2023-06-26T10:48:19;25.50;99.90
13186;DHT22;6658;53.080;7.428;2023-06-26T10:50:48;25.30;99.90
13186;DHT22;6658;53.080;7.428;2023-06-26T10:56:03;24.70;99.90
13186;DHT22;6658;53.080;7.428;2023-06-26T11:06:27;24.50;99.90
13186;DHT22;6658;53.080;7.428;2023-06-26T11:14:21;25.40;99.90
13186;DHT22;6658;53.080;7.428;2023-06-26T11:16:47;25.50;99.90
13186;DHT22;6658;53.080;7.428;2023-06-26T11:19:16;25.10;99.90
13186;DHT22;6658;53.080;7.428;2023-06-26T11:21:47;25.00;99.90
13186;DHT22;6658;53.080;7.428;2023-06-26T11:24:13;25.00;99.90
13186;DHT22;6658;53.080;7.428;2023-06-26T11:26:45;25.00;99.90
13186;DHT22;6658;53.080;7.428;2023-06-26T11:29:12;25.10;99.90
13186;DHT22;6658;53.080;7.428;2023-06-26T11:31:44;25.30;99.90
13186;DHT22;6658;53.080;7.428;2023-06-26T11:34:13;25.30;99.90
13186;DHT22;6658;53.080;7.428;2023-06-26T11:36:41;25.10;99.90
13186;DHT22;6658;53.080;7.428;2023-06-26T11:39:12;24.90;99.90
13186;DHT22;6658;53.080;7.428;2023-06-26T11:41:42;25.00;99.90
13186;DHT22;6658;53.080;7.428;2023-06-26T11:44:10;25.10;99.90
13186;DHT22;6658;53.080;7.428;2023-06-26T11:46:39;25.10;99.90
13186;DHT22;6658;53.080;7.428;2023-06-26T11:49:08;24.90;99.90
13186;DHT22;6658;53.080;7.428;2023-06-26T11:51:34;24.70;99.90
13186;DHT22;6658;53.080;7.428;2023-06-26T11:54:02;24.40;99.90
13186;DHT22;6658;53.080;7.428;2023-06-26T11:56:28;24.20;99.90
13186;DHT22;6658;53.080;7.428;2023-06-26T11:59:10;24.10;99.90
13186;DHT22;6658;53.080;7.428;2023-06-26T12:01:40;24.00;99.90
13186;DHT22;6658;53.080;7.428;2023-06-26T12:04:08;24.20;99.90
13186;DHT22;6658;53.080;7.428;2023-06-26T12:06:52;24.60;99.90
13186;DHT22;6658;53.080;7.428;2023-06-26T12:09:25;24.90;99.90
13186;DHT22;6658;53.080;7.428;2023-06-26T12:11:55;25.30;99.90
13186;DHT22;6658;53.080;7.428;2023-06-26T12:14:23;25.60;99.60
13186;DHT22;6658;53.080;7.428;2023-06-26T12:16:56;25.80;99.20
13186;DHT22;6658;53.080;7.428;2023-06-26T12:19:29;25.90;98.70
13186;DHT22;6658;53.080;7.428;2023-06-26T12:21:55;25.70;99.90
13186;DHT22;6658;53.080;7.428;2023-06-26T12:24:23;25.60;99.90
13186;DHT22;6658;53.080;7.428;2023-06-26T12:26:55;25.60;99.90
13186;DHT22;6658;53.080;7.428;2023-06-26T12:29:32;26.00;99.90
13186;DHT22;6658;53.080;7.428;2023-06-26T12:31:59;26.20;99.70
13186;DHT22;6658;53.080;7.428;2023-06-26T12:34:33;26.00;98.00
13186;DHT22;6658;53.080;7.428;2023-06-26T12:37:21;25.60;97.20
13186;DHT22;6658;53.080;7.428;2023-06-26T12:39:54;25.40;98.70
13186;DHT22;6658;53.080;7.428;2023-06-26T12:42:25;25.20;99.00
13186;DHT22;6658;53.080;7.428;2023-06-26T12:44:53;25.20;99.30
13186;DHT22;6658;53.080;7.428;2023-06-26T12:47:30;25.30;99.50
13186;DHT22;6658;53.080;7.428;2023-06-26T12:49:57;25.40;98.60
13186;DHT22;6658;53.080;7.428;2023-06-26T12:52:23;25.30;98.60
13186;DHT22;6658;53.080;7.428;2023-06-26T12:54:52;25.20;97.90
13186;DHT22;6658;53.080;7.428;2023-06-26T12:57:19;25.20;98.30
13186;DHT22;6658;53.080;7.428;2023-06-26T12:59:45;25.20;98.10
13186;DHT22;6658;53.080;7.428;2023-06-26T13:02:11;25.40;98.60
13186;DHT22;6658;53.080;7.428;2023-06-26T13:04:37;25.20;98.70
13186;DHT22;6658;53.080;7.428;2023-06-26T13:07:07;24.90;99.90
13186;DHT22;6658;53.080;7.428;2023-06-26T13:09:33;24.70;99.90
13186;DHT22;6658;53.080;7.428;2023-06-26T13:12:03;24.50;99.90
13186;DHT22;6658;53.080;7.428;2023-06-26T13:14:31;24.50;99.90
13186;DHT22;6658;53.080;7.428;2023-06-26T13:16:58;24.60;99.90
13186;DHT22;6658;53.080;7.428;2023-06-26T13:19:24;24.80;99.90
13186;DHT22;6658;53.080;7.428;2023-06-26T13:21:49;24.90;99.50
13186;DHT22;6658;53.080;7.428;2023-06-26T13:24:15;24.70;99.40
13186;DHT22;6658;53.080;7.428;2023-06-26T13:26:41;24.90;99.90
13186;DHT22;6658;53.080;7.428;2023-06-26T13:29:07;24.90;99.40
13186;DHT22;6658;53.080;7.428;2023-06-26T13:31:36;25.00;98.90
13186;DHT22;6658;53.080;7.428;2023-06-26T13:34:02;25.10;99.00
13186;DHT22;6658;53.080;7.428;2023-06-26T13:36:29;25.10;97.80
13186;DHT22;6658;53.080;7.428;2023-06-26T13:38:55;25.00;96.70
13186;DHT22;6658;53.080;7.428;2023-06-26T13:41:25;25.00;98.20
13186;DHT22;6658;53.080;7.428;2023-06-26T13:43:51;25.10;97.10
13186;DHT22;6658;53.080;7.428;2023-06-26T13:46:17;25.10;98.00
13186;DHT22;6658;53.080;7.428;2023-06-26T13:48:46;25.20;98.20
13186;DHT22;6658;53.080;7.428;2023-06-26T13:51:14;25.20;98.90
13186;DHT22;6658;53.080;7.428;2023-06-26T13:53:40;25.10;98.20
13186;DHT22;6658;53.080;7.428;2023-06-26T13:56:06;24.90;98.70
13186;DHT22;6658;53.080;7.428;2023-06-26T13:58:38;24.90;99.30
13186;DHT22;6658;53.080;7.428;2023-06-26T14:01:04;24.80;99.10
13186;DHT22;6658;53.080;7.428;2023-06-26T14:03:29;24.80;99.80
13186;DHT22;6658;53.080;7.428;2023-06-26T14:05:55;24.70;99.90
13186;DHT22;6658;53.080;7.428;2023-06-26T14:08:21;24.60;99.90
13186;DHT22;6658;53.080;7.428;2023-06-26T14:10:47;24.60;99.90
13186;DHT22;6658;53.080;7.428;2023-06-26T14:13:13;24.60;99.90
13186;DHT22;6658;53.080;7.428;2023-06-26T14:15:41;24.50;99.20
13186;DHT22;6658;53.080;7.428;2023-06-26T14:18:07;24.50;99.90
13186;DHT22;6658;53.080;7.428;2023-06-26T14:20:33;24.30;99.70
13186;DHT22;6658;53.080;7.428;2023-06-26T14:23:01;24.10;99.90
13186;DHT22;6658;53.080;7.428;2023-06-26T14:25:30;23.90;99.90
13186;DHT22;6658;53.080;7.428;2023-06-26T14:27:56;24.00;99.90
13186;DHT22;6658;53.080;7.428;2023-06-26T14:30:22;24.10;99.90
13186;DHT22;6658;53.080;7.428;2023-06-26T14:32:48;24.00;99.90
13186;DHT22;6658;53.080;7.428;2023-06-26T14:35:14;23.80;99.90
13186;DHT22;6658;53.080;7.428;2023-06-26T14:37:39;23.70;99.90
13186;DHT22;6658;53.080;7.428;2023-06-26T14:40:07;23.60;99.90
13186;DHT22;6658;53.080;7.428;2023-06-26T14:42:33;23.60;99.90
13186;DHT22;6658;53.080;7.428;2023-06-26T14:44:59;23.80;99.90
13186;DHT22;6658;53.080;7.428;2023-06-26T14:47:25;23.80;99.90
13186;DHT22;6658;53.080;7.428;2023-06-26T14:49:50;23.80;99.90
13186;DHT22;6658;53.080;7.428;2023-06-26T14:52:16;23.70;99.90
13186;DHT22;6658;53.080;7.428;2023-06-26T14:54:42;23.60;99.90
13186;DHT22;6658;53.080;7.428;2023-06-26T14:57:10;23.40;99.90
13186;DHT22;6658;53.080;7.428;2023-06-26T14:59:36;23.10;99.90
13186;DHT22;6658;53.080;7.428;2023-06-26T15:02:02;22.90;99.90
13186;DHT22;6658;53.080;7.428;2023-06-26T15:04:28;22.90;99.90
13186;DHT22;6658;53.080;7.428;2023-06-26T15:06:56;23.00;99.90
13186;DHT22;6658;53.080;7.428;2023-06-26T15:09:22;23.10;99.90
13186;DHT22;6658;53.080;7.428;2023-06-26T15:11:49;23.10;99.90
13186;DHT22;6658;53.080;7.428;2023-06-26T15:14:14;23.00;99.90
13186;DHT22;6658;53.080;7.428;2023-06-26T15:16:40;22.90;99.90
13186;DHT22;6658;53.080;7.428;2023-06-26T15:19:06;22.90;99.90
13186;DHT22;6658;53.080;7.428;2023-06-26T15:21:31;22.90;99.90
13186;DHT22;6658;53.080;7.428;2023-06-26T15:23:57;22.80;99.90
13186;DHT22;6658;53.080;7.428;2023-06-26T15:26:23;22.70;99.90
13186;DHT22;6658;53.080;7.428;2023-06-26T15:28:49;22.60;99.90
13186;DHT22;6658;53.080;7.428;2023-06-26T15:31:14;22.50;99.90
13186;DHT22;6658;53.080;7.428;2023-06-26T15:33:42;22.40;99.90
13186;DHT22;6658;53.080;7.428;2023-06-26T15:36:08;22.30;99.90
13186;DHT22;6658;53.080;7.428;2023-06-26T15:38:34;22.20;99.90
13186;DHT22;6658;53.080;7.428;2023-06-26T15:40:59;22.20;99.90
13186;DHT22;6658;53.080;7.428;2023-06-26T15:43:28;22.30;99.90
13186;DHT22;6658;53.080;7.428;2023-06-26T15:45:54;22.30;99.90
13186;DHT22;6658;53.080;7.428;2023-06-26T15:48:19;22.20;99.90
13186;DHT22;6658;53.080;7.428;2023-06-26T15:50:45;22.10;99.90
13186;DHT22;6658;53.080;7.428;2023-06-26T15:53:16;22.20;99.90
13186;DHT22;6658;53.080;7.428;2023-06-26T15:55:43;22.20;99.90
13186;DHT22;6658;53.080;7.428;2023-06-26T15:58:09;22.10;99.90
13186;DHT22;6658;53.080;7.428;2023-06-26T16:00:34;22.10;99.90
13186;DHT22;6658;53.080;7.428;2023-06-26T16:03:00;22.00;99.90
13186;DHT22;6658;53.080;7.428;2023-06-26T16:05:26;21.70;99.90
13186;DHT22;6658;53.080;7.428;2023-06-26T16:07:51;21.50;99.90
13186;DHT22;6658;53.080;7.428;2023-06-26T16:10:17;21.40;99.90
13186;DHT22;6658;53.080;7.428;2023-06-26T16:12:43;21.50;99.90
13186;DHT22;6658;53.080;7.428;2023-06-26T16:15:09;21.60;99.90
13186;DHT22;6658;53.080;7.428;2023-06-26T16:17:35;21.50;99.90
13186;DHT22;6658;53.080;7.428;2023-06-26T16:20:00;21.50;99.90
13186;DHT22;6658;53.080;7.428;2023-06-26T16:22:26;21.80;99.90
13186;DHT22;6658;53.080;7.428;2023-06-26T16:24:59;22.00;99.90
13186;DHT22;6658;53.080;7.428;2023-06-26T16:27:25;22.30;99.90
13186;DHT22;6658;53.080;7.428;2023-06-26T16:29:51;22.40;99.90
13186;DHT22;6658;53.080;7.428;2023-06-26T16:32:16;22.30;99.90
13186;DHT22;6658;53.080;7.428;2023-06-26T16:34:42;22.20;99.90
13186;DHT22;6658;53.080;7.428;2023-06-26T16:37:08;22.20;99.90
13186;DHT22;6658;53.080;7.428;2023-06-26T16:39:38;22.10;99.90
13186;DHT22;6658;53.080;7.428;2023-06-26T16:42:04;22.00;99.90
13186;DHT22;6658;53.080;7.428;2023-06-26T16:44:30;22.00;99.90
13186;DHT22;6658;53.080;7.428;2023-06-26T16:46:57;21.80;99.90
13186;DHT22;6658;53.080;7.428;2023-06-26T16:49:24;21.60;99.90
13186;DHT22;6658;53.080;7.428;2023-06-26T16:51:50;21.70;99.90
13186;DHT22;6658;53.080;7.428;2023-06-26T16:54:18;21.70;99.90
13186;DHT22;6658;53.080;7.428;2023-06-26T16:56:44;21.50;99.90
13186;DHT22;6658;53.080;7.428;2023-06-26T16:59:10;21.50;99.90
13186;DHT22;6658;53.080;7.428;2023-06-26T17:01:41;21.80;99.90
13186;DHT22;6658;53.080;7.428;2023-06-26T17:04:09;21.50;99.90
13186;DHT22;6658;53.080;7.428;2023-06-26T17:06:35;21.30;99.90
13186;DHT22;6658;53.080;7.428;2023-06-26T17:09:03;21.30;99.90
13186;DHT22;6658;53.080;7.428;2023-06-26T17:11:29;21.30;99.90
13186;DHT22;6658;53.080;7.428;2023-06-26T17:13:57;21.50;99.90
13186;DHT22;6658;53.080;7.428;2023-06-26T17:16:23;21.60;99.90
13186;DHT22;6658;53.080;7.428;2023-06-26T17:18:49;21.60;99.90
13186;DHT22;6658;53.080;7.428;2023-06-26T17:21:14;21.70;99.90
13186;DHT22;6658;53.080;7.428;2023-06-26T17:23:40;21.80;99.90
13186;DHT22;6658;53.080;7.428;2023-06-26T17:26:09;22.00;99.90